sensor_id;sensor_type;location;lat;lon;timestamp;P1;durP1;ratioP1;P2;durP2;ratioP2
14171;SDS011;7165;52.388;4.928;2023-11-21T00:02:25;19.60;;;15.27;;
14171;SDS011;7165;52.388;4.928;2023-11-21T00:04:53;19.63;;;15.82;;
14171;SDS011;7165;52.388;4.928;2023-11-21T00:07:19;23.15;;;16.88;;
14171;SDS011;7165;52.388;4.928;2023-11-21T00:09:46;24.30;;;16.10;;
14171;SDS011;7165;52.388;4.928;2023-11-21T00:12:13;26.27;;;15.77;;
14171;SDS011;7165;52.388;4.928;2023-11-21T00:14:39;25.33;;;15.65;;
14171;SDS011;7165;52.388;4.928;2023-11-21T00:17:06;18.08;;;15.13;;
14171;SDS011;7165;52.388;4.928;2023-11-21T00:19:34;23.58;;;15.05;;
14171;SDS011;7165;52.388;4.928;2023-11-21T00:22:01;22.10;;;17.40;;
14171;SDS011;7165;52.388;4.928;2023-11-21T00:24:28;24.25;;;15.73;;
14171;SDS011;7165;52.388;4.928;2023-11-21T00:26:55;22.23;;;15.90;;
14171;SDS011;7165;52.388;4.928;2023-11-21T00:29:22;24.23;;;15.40;;
14171;SDS011;7165;52.388;4.928;2023-11-21T00:31:49;26.08;;;14.77;;
14171;SDS011;7165;52.388;4.928;2023-11-21T00:34:15;19.55;;;15.27;;
14171;SDS011;7165;52.388;4.928;2023-11-21T00:36:43;24.67;;;15.73;;
14171;SDS011;7165;52.388;4.928;2023-11-21T00:39:10;19.42;;;14.90;;
14171;SDS011;7165;52.388;4.928;2023-11-21T00:41:36;19.73;;;15.32;;
14171;SDS011;7165;52.388;4.928;2023-11-21T00:44:03;18.55;;;14.18;;
14171;SDS011;7165;52.388;4.928;2023-11-21T00:46:31;21.10;;;13.82;;
14171;SDS011;7165;52.388;4.928;2023-11-21T00:48:58;17.55;;;15.32;;
14171;SDS011;7165;52.388;4.928;2023-11-21T00:51:24;24.35;;;15.27;;
14171;SDS011;7165;52.388;4.928;2023-11-21T00:53:52;30.65;;;15.52;;
14171;SDS011;7165;52.388;4.928;2023-11-21T00:56:19;20.70;;;15.13;;
14171;SDS011;7165;52.388;4.928;2023-11-21T00:58:46;17.73;;;14.38;;
14171;SDS011;7165;52.388;4.928;2023-11-21T01:01:15;22.13;;;14.88;;
14171;SDS011;7165;52.388;4.928;2023-11-21T01:03:41;22.33;;;14.15;;
14171;SDS011;7165;52.388;4.928;2023-11-21T01:06:08;24.98;;;14.75;;
14171;SDS011;7165;52.388;4.928;2023-11-21T01:08:35;21.60;;;14.60;;
14171;SDS011;7165;52.388;4.928;2023-11-21T01:11:03;20.40;;;14.35;;
14171;SDS011;7165;52.388;4.928;2023-11-21T01:13:32;21.17;;;13.57;;
14171;SDS011;7165;52.388;4.928;2023-11-21T01:16:00;24.88;;;15.45;;
14171;SDS011;7165;52.388;4.928;2023-11-21T01:18:27;20.10;;;14.13;;
14171;SDS011;7165;52.388;4.928;2023-11-21T01:20:54;18.85;;;14.68;;
14171;SDS011;7165;52.388;4.928;2023-11-21T01:23:21;22.42;;;14.20;;
14171;SDS011;7165;52.388;4.928;2023-11-21T01:25:48;18.58;;;13.77;;
14171;SDS011;7165;52.388;4.928;2023-11-21T01:28:17;18.50;;;13.15;;
14171;SDS011;7165;52.388;4.928;2023-11-21T01:30:45;20.08;;;15.40;;
14171;SDS011;7165;52.388;4.928;2023-11-21T01:33:11;19.30;;;12.68;;
14171;SDS011;7165;52.388;4.928;2023-11-21T01:35:40;20.10;;;13.30;;
14171;SDS011;7165;52.388;4.928;2023-11-21T01:38:07;21.33;;;13.63;;
14171;SDS011;7165;52.388;4.928;2023-11-21T01:40:34;14.05;;;12.27;;
14171;SDS011;7165;52.388;4.928;2023-11-21T01:43:01;15.50;;;11.35;;
14171;SDS011;7165;52.388;4.928;2023-11-21T01:45:29;19.90;;;13.85;;
14171;SDS011;7165;52.388;4.928;2023-11-21T01:47:58;17.75;;;12.63;;
14171;SDS011;7165;52.388;4.928;2023-11-21T01:50:25;18.13;;;12.70;;
14171;SDS011;7165;52.388;4.928;2023-11-21T01:52:53;18.23;;;12.10;;
14171;SDS011;7165;52.388;4.928;2023-11-21T01:55:20;18.25;;;12.68;;
14171;SDS011;7165;52.388;4.928;2023-11-21T01:57:47;22.00;;;12.65;;
14171;SDS011;7165;52.388;4.928;2023-11-21T02:00:14;24.05;;;13.13;;
14171;SDS011;7165;52.388;4.928;2023-11-21T02:02:43;18.30;;;12.75;;
14171;SDS011;7165;52.388;4.928;2023-11-21T02:05:10;15.02;;;11.88;;
14171;SDS011;7165;52.388;4.928;2023-11-21T02:07:38;16.92;;;12.75;;
14171;SDS011;7165;52.388;4.928;2023-11-21T02:10:05;21.35;;;12.90;;
14171;SDS011;7165;52.388;4.928;2023-11-21T02:12:33;19.75;;;13.05;;
14171;SDS011;7165;52.388;4.928;2023-11-21T02:15:00;19.60;;;11.75;;
14171;SDS011;7165;52.388;4.928;2023-11-21T02:17:27;18.55;;;12.55;;
14171;SDS011;7165;52.388;4.928;2023-11-21T02:19:55;20.90;;;13.27;;
14171;SDS011;7165;52.388;4.928;2023-11-21T02:22:22;14.70;;;11.68;;
14171;SDS011;7165;52.388;4.928;2023-11-21T02:24:52;17.30;;;11.65;;
14171;SDS011;7165;52.388;4.928;2023-11-21T02:27:19;16.60;;;12.27;;
14171;SDS011;7165;52.388;4.928;2023-11-21T02:29:48;15.48;;;11.65;;
14171;SDS011;7165;52.388;4.928;2023-11-21T02:32:15;17.50;;;12.73;;
14171;SDS011;7165;52.388;4.928;2023-11-21T02:34:44;15.93;;;12.07;;
14171;SDS011;7165;52.388;4.928;2023-11-21T02:37:10;15.85;;;11.98;;
14171;SDS011;7165;52.388;4.928;2023-11-21T02:39:37;18.33;;;13.88;;
14171;SDS011;7165;52.388;4.928;2023-11-21T02:42:05;18.45;;;12.68;;
14171;SDS011;7165;52.388;4.928;2023-11-21T02:44:32;20.52;;;12.40;;
14171;SDS011;7165;52.388;4.928;2023-11-21T02:46:59;20.23;;;13.27;;
14171;SDS011;7165;52.388;4.928;2023-11-21T02:49:26;14.10;;;12.43;;
14171;SDS011;7165;52.388;4.928;2023-11-21T02:51:53;16.52;;;12.15;;
14171;SDS011;7165;52.388;4.928;2023-11-21T02:54:20;15.18;;;13.32;;
14171;SDS011;7165;52.388;4.928;2023-11-21T02:56:47;20.45;;;12.38;;
14171;SDS011;7165;52.388;4.928;2023-11-21T02:59:16;17.45;;;13.02;;
14171;SDS011;7165;52.388;4.928;2023-11-21T03:01:42;17.25;;;13.63;;
14171;SDS011;7165;52.388;4.928;2023-11-21T03:04:09;20.65;;;13.35;;
14171;SDS011;7165;52.388;4.928;2023-11-21T03:06:36;16.15;;;13.07;;
14171;SDS011;7165;52.388;4.928;2023-11-21T03:09:02;20.00;;;14.02;;
14171;SDS011;7165;52.388;4.928;2023-11-21T03:11:31;20.27;;;13.10;;
14171;SDS011;7165;52.388;4.928;2023-11-21T03:13:58;17.85;;;13.27;;
14171;SDS011;7165;52.388;4.928;2023-11-21T03:16:26;16.60;;;12.95;;
14171;SDS011;7165;52.388;4.928;2023-11-21T03:18:52;23.92;;;14.38;;
14171;SDS011;7165;52.388;4.928;2023-11-21T03:21:19;23.73;;;14.70;;
14171;SDS011;7165;52.388;4.928;2023-11-21T03:23:46;22.63;;;14.90;;
14171;SDS011;7165;52.388;4.928;2023-11-21T03:26:12;26.90;;;14.70;;
14171;SDS011;7165;52.388;4.928;2023-11-21T03:28:39;20.00;;;14.30;;
14171;SDS011;7165;52.388;4.928;2023-11-21T03:31:05;21.63;;;14.65;;
14171;SDS011;7165;52.388;4.928;2023-11-21T03:33:35;18.67;;;13.60;;
14171;SDS011;7165;52.388;4.928;2023-11-21T03:36:02;18.65;;;13.90;;
14171;SDS011;7165;52.388;4.928;2023-11-21T03:38:29;19.40;;;12.95;;
14171;SDS011;7165;52.388;4.928;2023-11-21T03:40:56;18.23;;;13.90;;
14171;SDS011;7165;52.388;4.928;2023-11-21T03:43:22;17.80;;;14.05;;
14171;SDS011;7165;52.388;4.928;2023-11-21T03:45:49;18.27;;;14.10;;
14171;SDS011;7165;52.388;4.928;2023-11-21T03:48:16;16.90;;;13.70;;
14171;SDS011;7165;52.388;4.928;2023-11-21T03:50:44;23.48;;;14.55;;
14171;SDS011;7165;52.388;4.928;2023-11-21T03:53:12;17.65;;;12.50;;
14171;SDS011;7165;52.388;4.928;2023-11-21T03:55:38;18.33;;;11.45;;
14171;SDS011;7165;52.388;4.928;2023-11-21T03:58:05;21.25;;;11.55;;
14171;SDS011;7165;52.388;4.928;2023-11-21T04:00:32;14.95;;;12.52;;
14171;SDS011;7165;52.388;4.928;2023-11-21T04:02:58;13.48;;;10.73;;
14171;SDS011;7165;52.388;4.928;2023-11-21T04:05:25;15.07;;;10.32;;
14171;SDS011;7165;52.388;4.928;2023-11-21T04:07:53;11.82;;;10.52;;
14171;SDS011;7165;52.388;4.928;2023-11-21T04:10:20;11.98;;;8.25;;
14171;SDS011;7165;52.388;4.928;2023-11-21T04:12:47;14.25;;;10.32;;
14171;SDS011;7165;52.388;4.928;2023-11-21T04:15:13;12.18;;;9.88;;
14171;SDS011;7165;52.388;4.928;2023-11-21T04:17:40;13.43;;;11.35;;
14171;SDS011;7165;52.388;4.928;2023-11-21T04:20:08;14.68;;;10.95;;
14171;SDS011;7165;52.388;4.928;2023-11-21T04:22:36;11.93;;;8.50;;
14171;SDS011;7165;52.388;4.928;2023-11-21T04:25:07;8.15;;;7.35;;
14171;SDS011;7165;52.388;4.928;2023-11-21T04:27:34;9.50;;;8.60;;
14171;SDS011;7165;52.388;4.928;2023-11-21T04:30:01;12.00;;;9.13;;
14171;SDS011;7165;52.388;4.928;2023-11-21T04:32:27;11.50;;;8.30;;
14171;SDS011;7165;52.388;4.928;2023-11-21T04:34:54;8.80;;;7.50;;
14171;SDS011;7165;52.388;4.928;2023-11-21T04:37:21;9.68;;;7.35;;
14171;SDS011;7165;52.388;4.928;2023-11-21T04:39:47;8.98;;;7.03;;
14171;SDS011;7165;52.388;4.928;2023-11-21T04:42:15;7.93;;;7.05;;
14171;SDS011;7165;52.388;4.928;2023-11-21T04:44:42;9.02;;;6.93;;
14171;SDS011;7165;52.388;4.928;2023-11-21T04:47:09;9.93;;;7.63;;
14171;SDS011;7165;52.388;4.928;2023-11-21T04:49:36;9.27;;;8.30;;
14171;SDS011;7165;52.388;4.928;2023-11-21T04:52:02;8.50;;;7.60;;
14171;SDS011;7165;52.388;4.928;2023-11-21T04:54:30;11.00;;;7.88;;
14171;SDS011;7165;52.388;4.928;2023-11-21T04:56:57;9.73;;;6.63;;
14171;SDS011;7165;52.388;4.928;2023-11-21T04:59:25;8.80;;;7.63;;
14171;SDS011;7165;52.388;4.928;2023-11-21T05:01:52;11.60;;;8.48;;
14171;SDS011;7165;52.388;4.928;2023-11-21T05:04:19;11.52;;;8.45;;
14171;SDS011;7165;52.388;4.928;2023-11-21T05:06:46;10.43;;;8.55;;
14171;SDS011;7165;52.388;4.928;2023-11-21T05:09:12;9.23;;;8.13;;
14171;SDS011;7165;52.388;4.928;2023-11-21T05:11:40;13.45;;;8.65;;
14171;SDS011;7165;52.388;4.928;2023-11-21T05:14:07;12.45;;;8.35;;
14171;SDS011;7165;52.388;4.928;2023-11-21T05:16:35;8.75;;;7.70;;
14171;SDS011;7165;52.388;4.928;2023-11-21T05:19:03;8.52;;;7.22;;
14171;SDS011;7165;52.388;4.928;2023-11-21T05:21:30;9.95;;;8.10;;
14171;SDS011;7165;52.388;4.928;2023-11-21T05:23:57;9.45;;;7.68;;
14171;SDS011;7165;52.388;4.928;2023-11-21T05:26:22;8.15;;;6.80;;
14171;SDS011;7165;52.388;4.928;2023-11-21T05:28:49;8.93;;;7.03;;
14171;SDS011;7165;52.388;4.928;2023-11-21T05:31:16;8.32;;;6.20;;
14171;SDS011;7165;52.388;4.928;2023-11-21T05:33:44;7.75;;;6.75;;
14171;SDS011;7165;52.388;4.928;2023-11-21T05:36:11;11.98;;;7.00;;
14171;SDS011;7165;52.388;4.928;2023-11-21T05:38:38;11.73;;;6.40;;
14171;SDS011;7165;52.388;4.928;2023-11-21T05:41:04;9.57;;;6.28;;
14171;SDS011;7165;52.388;4.928;2023-11-21T05:43:31;9.00;;;6.28;;
14171;SDS011;7165;52.388;4.928;2023-11-21T05:46:00;10.50;;;6.75;;
14171;SDS011;7165;52.388;4.928;2023-11-21T05:48:27;8.82;;;7.07;;
14171;SDS011;7165;52.388;4.928;2023-11-21T05:50:55;10.45;;;6.65;;
14171;SDS011;7165;52.388;4.928;2023-11-21T05:53:21;13.13;;;7.40;;
14171;SDS011;7165;52.388;4.928;2023-11-21T05:55:48;10.88;;;6.22;;
14171;SDS011;7165;52.388;4.928;2023-11-21T05:58:15;11.68;;;7.65;;
14171;SDS011;7165;52.388;4.928;2023-11-21T06:00:41;11.98;;;6.60;;
14171;SDS011;7165;52.388;4.928;2023-11-21T06:03:08;10.82;;;7.15;;
14171;SDS011;7165;52.388;4.928;2023-11-21T06:05:35;9.23;;;7.00;;
14171;SDS011;7165;52.388;4.928;2023-11-21T06:08:03;11.68;;;6.72;;
14171;SDS011;7165;52.388;4.928;2023-11-21T06:10:31;8.80;;;6.97;;
14171;SDS011;7165;52.388;4.928;2023-11-21T06:12:59;10.68;;;6.43;;
14171;SDS011;7165;52.388;4.928;2023-11-21T06:15:25;9.98;;;6.70;;
14171;SDS011;7165;52.388;4.928;2023-11-21T06:17:52;11.30;;;7.32;;
14171;SDS011;7165;52.388;4.928;2023-11-21T06:20:19;10.65;;;6.38;;
14171;SDS011;7165;52.388;4.928;2023-11-21T06:22:48;10.02;;;7.22;;
14171;SDS011;7165;52.388;4.928;2023-11-21T06:25:17;9.98;;;7.45;;
14171;SDS011;7165;52.388;4.928;2023-11-21T06:27:45;13.70;;;8.05;;
14171;SDS011;7165;52.388;4.928;2023-11-21T06:30:13;12.10;;;7.63;;
14171;SDS011;7165;52.388;4.928;2023-11-21T06:32:40;11.68;;;7.20;;
14171;SDS011;7165;52.388;4.928;2023-11-21T06:35:10;16.35;;;8.15;;
14171;SDS011;7165;52.388;4.928;2023-11-21T06:37:38;9.63;;;8.05;;
14171;SDS011;7165;52.388;4.928;2023-11-21T06:40:05;9.75;;;8.15;;
14171;SDS011;7165;52.388;4.928;2023-11-21T06:42:36;9.98;;;8.52;;
14171;SDS011;7165;52.388;4.928;2023-11-21T06:45:04;14.20;;;9.50;;
14171;SDS011;7165;52.388;4.928;2023-11-21T06:47:32;12.32;;;9.40;;
14171;SDS011;7165;52.388;4.928;2023-11-21T06:49:59;13.55;;;9.60;;
14171;SDS011;7165;52.388;4.928;2023-11-21T06:52:26;12.82;;;10.02;;
14171;SDS011;7165;52.388;4.928;2023-11-21T06:54:53;11.10;;;10.00;;
14171;SDS011;7165;52.388;4.928;2023-11-21T06:57:20;13.38;;;9.10;;
14171;SDS011;7165;52.388;4.928;2023-11-21T06:59:50;17.85;;;10.05;;
14171;SDS011;7165;52.388;4.928;2023-11-21T07:02:16;14.80;;;10.13;;
14171;SDS011;7165;52.388;4.928;2023-11-21T07:04:44;13.70;;;9.65;;
14171;SDS011;7165;52.388;4.928;2023-11-21T07:07:11;11.43;;;8.95;;
14171;SDS011;7165;52.388;4.928;2023-11-21T07:09:37;18.02;;;9.05;;
14171;SDS011;7165;52.388;4.928;2023-11-21T07:12:05;14.60;;;9.98;;
14171;SDS011;7165;52.388;4.928;2023-11-21T07:14:32;12.70;;;8.90;;
14171;SDS011;7165;52.388;4.928;2023-11-21T07:17:00;14.10;;;9.85;;
14171;SDS011;7165;52.388;4.928;2023-11-21T07:19:27;18.63;;;10.02;;
14171;SDS011;7165;52.388;4.928;2023-11-21T07:21:54;13.93;;;9.70;;
14171;SDS011;7165;52.388;4.928;2023-11-21T07:24:20;17.45;;;10.85;;
14171;SDS011;7165;52.388;4.928;2023-11-21T07:26:47;15.38;;;10.57;;
14171;SDS011;7165;52.388;4.928;2023-11-21T07:29:14;14.93;;;10.52;;
14171;SDS011;7165;52.388;4.928;2023-11-21T07:31:41;15.30;;;10.98;;
14171;SDS011;7165;52.388;4.928;2023-11-21T07:34:09;13.02;;;10.73;;
14171;SDS011;7165;52.388;4.928;2023-11-21T07:36:37;12.65;;;9.68;;
14171;SDS011;7165;52.388;4.928;2023-11-21T07:39:03;16.20;;;10.48;;
14171;SDS011;7165;52.388;4.928;2023-11-21T07:41:31;15.75;;;11.63;;
14171;SDS011;7165;52.388;4.928;2023-11-21T07:43:58;10.70;;;9.07;;
14171;SDS011;7165;52.388;4.928;2023-11-21T07:46:25;15.15;;;9.57;;
14171;SDS011;7165;52.388;4.928;2023-11-21T07:48:52;16.17;;;10.38;;
14171;SDS011;7165;52.388;4.928;2023-11-21T07:51:21;13.63;;;10.50;;
14171;SDS011;7165;52.388;4.928;2023-11-21T07:53:48;12.05;;;10.02;;
14171;SDS011;7165;52.388;4.928;2023-11-21T07:56:15;15.20;;;9.65;;
14171;SDS011;7165;52.388;4.928;2023-11-21T07:58:42;13.43;;;9.13;;
14171;SDS011;7165;52.388;4.928;2023-11-21T08:01:10;12.60;;;9.07;;
14171;SDS011;7165;52.388;4.928;2023-11-21T08:03:36;12.70;;;9.45;;
14171;SDS011;7165;52.388;4.928;2023-11-21T08:06:03;12.70;;;8.75;;
14171;SDS011;7165;52.388;4.928;2023-11-21T08:08:32;15.18;;;10.07;;
14171;SDS011;7165;52.388;4.928;2023-11-21T08:10:58;11.02;;;9.43;;
14171;SDS011;7165;52.388;4.928;2023-11-21T08:13:27;10.90;;;8.55;;
14171;SDS011;7165;52.388;4.928;2023-11-21T08:15:55;15.90;;;9.65;;
14171;SDS011;7165;52.388;4.928;2023-11-21T08:18:26;10.85;;;9.15;;
14171;SDS011;7165;52.388;4.928;2023-11-21T08:20:53;13.00;;;10.40;;
14171;SDS011;7165;52.388;4.928;2023-11-21T08:23:21;12.57;;;9.38;;
14171;SDS011;7165;52.388;4.928;2023-11-21T08:25:51;11.85;;;10.10;;
14171;SDS011;7165;52.388;4.928;2023-11-21T08:28:19;15.32;;;11.20;;
14171;SDS011;7165;52.388;4.928;2023-11-21T08:30:48;16.33;;;11.23;;
14171;SDS011;7165;52.388;4.928;2023-11-21T08:33:15;10.20;;;9.07;;
14171;SDS011;7165;52.388;4.928;2023-11-21T08:35:41;12.52;;;9.25;;
14171;SDS011;7165;52.388;4.928;2023-11-21T08:38:08;14.10;;;10.07;;
14171;SDS011;7165;52.388;4.928;2023-11-21T08:40:35;13.63;;;10.13;;
14171;SDS011;7165;52.388;4.928;2023-11-21T08:43:03;15.40;;;10.82;;
14171;SDS011;7165;52.388;4.928;2023-11-21T08:45:30;13.35;;;10.60;;
14171;SDS011;7165;52.388;4.928;2023-11-21T08:47:59;12.77;;;10.88;;
14171;SDS011;7165;52.388;4.928;2023-11-21T08:50:26;13.15;;;11.27;;
14171;SDS011;7165;52.388;4.928;2023-11-21T08:52:53;13.15;;;11.65;;
14171;SDS011;7165;52.388;4.928;2023-11-21T08:55:20;13.73;;;11.50;;
14171;SDS011;7165;52.388;4.928;2023-11-21T08:57:47;15.65;;;13.23;;
14171;SDS011;7165;52.388;4.928;2023-11-21T09:00:16;18.58;;;14.45;;
14171;SDS011;7165;52.388;4.928;2023-11-21T09:02:43;17.73;;;13.40;;
14171;SDS011;7165;52.388;4.928;2023-11-21T09:05:11;22.27;;;16.38;;
14171;SDS011;7165;52.388;4.928;2023-11-21T09:07:39;17.67;;;15.23;;
14171;SDS011;7165;52.388;4.928;2023-11-21T09:10:07;18.27;;;15.18;;
14171;SDS011;7165;52.388;4.928;2023-11-21T09:12:35;18.38;;;14.57;;
14171;SDS011;7165;52.388;4.928;2023-11-21T09:15:02;17.33;;;13.85;;
14171;SDS011;7165;52.388;4.928;2023-11-21T09:17:31;16.88;;;14.32;;
14171;SDS011;7165;52.388;4.928;2023-11-21T09:19:59;21.15;;;14.98;;
14171;SDS011;7165;52.388;4.928;2023-11-21T09:22:25;19.40;;;14.95;;
14171;SDS011;7165;52.388;4.928;2023-11-21T09:24:54;15.55;;;13.70;;
14171;SDS011;7165;52.388;4.928;2023-11-21T09:27:23;19.65;;;15.38;;
14171;SDS011;7165;52.388;4.928;2023-11-21T09:29:51;18.55;;;15.23;;
14171;SDS011;7165;52.388;4.928;2023-11-21T09:32:17;19.92;;;14.07;;
14171;SDS011;7165;52.388;4.928;2023-11-21T09:34:47;16.25;;;13.50;;
14171;SDS011;7165;52.388;4.928;2023-11-21T09:37:14;18.13;;;14.20;;
14171;SDS011;7165;52.388;4.928;2023-11-21T09:39:41;19.48;;;13.65;;
14171;SDS011;7165;52.388;4.928;2023-11-21T09:42:08;15.48;;;12.85;;
14171;SDS011;7165;52.388;4.928;2023-11-21T09:44:41;15.43;;;12.65;;
14171;SDS011;7165;52.388;4.928;2023-11-21T09:47:14;17.38;;;11.70;;
14171;SDS011;7165;52.388;4.928;2023-11-21T09:49:41;13.43;;;10.85;;
14171;SDS011;7165;52.388;4.928;2023-11-21T09:52:13;14.05;;;10.57;;
14171;SDS011;7165;52.388;4.928;2023-11-21T09:54:50;13.40;;;10.63;;
14171;SDS011;7165;52.388;4.928;2023-11-21T09:57:18;13.35;;;11.30;;
14171;SDS011;7165;52.388;4.928;2023-11-21T09:59:46;15.75;;;11.43;;
14171;SDS011;7165;52.388;4.928;2023-11-21T10:02:17;14.00;;;11.18;;
14171;SDS011;7165;52.388;4.928;2023-11-21T10:04:46;21.02;;;12.73;;
14171;SDS011;7165;52.388;4.928;2023-11-21T10:07:14;14.77;;;11.13;;
14171;SDS011;7165;52.388;4.928;2023-11-21T10:09:44;17.73;;;13.13;;
14171;SDS011;7165;52.388;4.928;2023-11-21T10:12:11;18.67;;;13.77;;
14171;SDS011;7165;52.388;4.928;2023-11-21T10:14:41;15.60;;;12.25;;
14171;SDS011;7165;52.388;4.928;2023-11-21T10:17:10;19.95;;;14.20;;
14171;SDS011;7165;52.388;4.928;2023-11-21T10:19:38;18.65;;;13.85;;
14171;SDS011;7165;52.388;4.928;2023-11-21T10:22:05;16.85;;;13.95;;
14171;SDS011;7165;52.388;4.928;2023-11-21T10:24:34;19.73;;;14.43;;
14171;SDS011;7165;52.388;4.928;2023-11-21T10:27:01;17.00;;;13.82;;
14171;SDS011;7165;52.388;4.928;2023-11-21T10:29:29;18.13;;;14.32;;
14171;SDS011;7165;52.388;4.928;2023-11-21T10:32:00;19.80;;;13.93;;
14171;SDS011;7165;52.388;4.928;2023-11-21T10:34:28;21.67;;;15.38;;
14171;SDS011;7165;52.388;4.928;2023-11-21T10:36:55;18.48;;;15.13;;
14171;SDS011;7165;52.388;4.928;2023-11-21T10:39:24;19.75;;;14.75;;
14171;SDS011;7165;52.388;4.928;2023-11-21T10:41:54;19.35;;;14.63;;
14171;SDS011;7165;52.388;4.928;2023-11-21T10:44:21;19.95;;;14.68;;
14171;SDS011;7165;52.388;4.928;2023-11-21T10:46:49;20.88;;;15.23;;
14171;SDS011;7165;52.388;4.928;2023-11-21T10:49:17;17.48;;;13.10;;
14171;SDS011;7165;52.388;4.928;2023-11-21T10:51:44;22.58;;;16.50;;
14171;SDS011;7165;52.388;4.928;2023-11-21T10:54:15;16.83;;;12.82;;
14171;SDS011;7165;52.388;4.928;2023-11-21T10:56:43;17.65;;;13.68;;
14171;SDS011;7165;52.388;4.928;2023-11-21T10:59:13;19.10;;;15.02;;
14171;SDS011;7165;52.388;4.928;2023-11-21T11:01:41;18.85;;;14.73;;
14171;SDS011;7165;52.388;4.928;2023-11-21T11:04:10;20.75;;;15.15;;
14171;SDS011;7165;52.388;4.928;2023-11-21T11:06:41;17.92;;;14.45;;
14171;SDS011;7165;52.388;4.928;2023-11-21T11:09:09;18.90;;;14.77;;
14171;SDS011;7165;52.388;4.928;2023-11-21T11:11:39;17.73;;;15.40;;
14171;SDS011;7165;52.388;4.928;2023-11-21T11:14:06;14.20;;;11.80;;
14171;SDS011;7165;52.388;4.928;2023-11-21T11:16:35;16.55;;;12.93;;
14171;SDS011;7165;52.388;4.928;2023-11-21T11:19:04;13.20;;;11.77;;
14171;SDS011;7165;52.388;4.928;2023-11-21T11:21:34;12.95;;;11.65;;
14171;SDS011;7165;52.388;4.928;2023-11-21T11:24:13;11.85;;;10.68;;
14171;SDS011;7165;52.388;4.928;2023-11-21T11:26:48;12.82;;;11.55;;
14171;SDS011;7165;52.388;4.928;2023-11-21T11:29:23;13.27;;;11.23;;
14171;SDS011;7165;52.388;4.928;2023-11-21T11:32:03;13.20;;;12.00;;
14171;SDS011;7165;52.388;4.928;2023-11-21T11:34:40;12.52;;;11.23;;
14171;SDS011;7165;52.388;4.928;2023-11-21T11:37:12;12.10;;;10.85;;
14171;SDS011;7165;52.388;4.928;2023-11-21T11:39:40;12.63;;;11.40;;
14171;SDS011;7165;52.388;4.928;2023-11-21T11:42:08;12.13;;;10.93;;
14171;SDS011;7165;52.388;4.928;2023-11-21T11:44:48;11.63;;;10.43;;
14171;SDS011;7165;52.388;4.928;2023-11-21T11:47:29;11.25;;;10.05;;
14171;SDS011;7165;52.388;4.928;2023-11-21T11:50:02;11.27;;;10.05;;
14171;SDS011;7165;52.388;4.928;2023-11-21T11:52:33;12.30;;;11.10;;
14171;SDS011;7165;52.388;4.928;2023-11-21T11:55:00;12.63;;;10.02;;
14171;SDS011;7165;52.388;4.928;2023-11-21T11:57:29;10.95;;;10.00;;
14171;SDS011;7165;52.388;4.928;2023-11-21T12:02:48;11.35;;;10.20;;
14171;SDS011;7165;52.388;4.928;2023-11-21T12:05:16;11.98;;;10.50;;
14171;SDS011;7165;52.388;4.928;2023-11-21T12:07:47;10.77;;;9.80;;
14171;SDS011;7165;52.388;4.928;2023-11-21T12:10:16;11.65;;;9.38;;
14171;SDS011;7165;52.388;4.928;2023-11-21T12:12:45;11.10;;;9.95;;
14171;SDS011;7165;52.388;4.928;2023-11-21T12:15:12;11.32;;;10.13;;
14171;SDS011;7165;52.388;4.928;2023-11-21T12:17:39;11.32;;;10.13;;
14171;SDS011;7165;52.388;4.928;2023-11-21T12:20:10;11.60;;;10.45;;
14171;SDS011;7165;52.388;4.928;2023-11-21T12:22:42;12.20;;;11.00;;
14171;SDS011;7165;52.388;4.928;2023-11-21T12:25:12;12.63;;;11.40;;
14171;SDS011;7165;52.388;4.928;2023-11-21T12:27:41;14.00;;;12.52;;
14171;SDS011;7165;52.388;4.928;2023-11-21T12:30:10;16.73;;;12.20;;
14171;SDS011;7165;52.388;4.928;2023-11-21T12:32:38;14.65;;;12.05;;
14171;SDS011;7165;52.388;4.928;2023-11-21T12:35:06;13.80;;;12.32;;
14171;SDS011;7165;52.388;4.928;2023-11-21T12:37:36;12.82;;;11.52;;
14171;SDS011;7165;52.388;4.928;2023-11-21T12:40:04;14.02;;;12.57;;
14171;SDS011;7165;52.388;4.928;2023-11-21T12:42:32;14.95;;;13.40;;
14171;SDS011;7165;52.388;4.928;2023-11-21T12:45:09;13.60;;;12.20;;
14171;SDS011;7165;52.388;4.928;2023-11-21T12:47:44;13.38;;;12.07;;
14171;SDS011;7165;52.388;4.928;2023-11-21T12:50:12;16.15;;;14.55;;
14171;SDS011;7165;52.388;4.928;2023-11-21T12:52:42;15.27;;;13.68;;
14171;SDS011;7165;52.388;4.928;2023-11-21T12:55:16;14.55;;;13.05;;
14171;SDS011;7165;52.388;4.928;2023-11-21T12:57:47;16.80;;;14.82;;
14171;SDS011;7165;52.388;4.928;2023-11-21T13:00:16;16.48;;;14.75;;
14171;SDS011;7165;52.388;4.928;2023-11-21T13:02:52;17.83;;;15.52;;
14171;SDS011;7165;52.388;4.928;2023-11-21T13:05:24;19.83;;;15.75;;
14171;SDS011;7165;52.388;4.928;2023-11-21T13:07:52;16.77;;;15.02;;
14171;SDS011;7165;52.388;4.928;2023-11-21T13:10:20;17.10;;;15.23;;
14171;SDS011;7165;52.388;4.928;2023-11-21T13:12:51;16.08;;;13.73;;
14171;SDS011;7165;52.388;4.928;2023-11-21T13:15:19;16.17;;;14.07;;
14171;SDS011;7165;52.388;4.928;2023-11-21T13:17:46;15.50;;;14.02;;
14171;SDS011;7165;52.388;4.928;2023-11-21T13:20:13;16.00;;;14.35;;
14171;SDS011;7165;52.388;4.928;2023-11-21T13:22:46;15.90;;;14.27;;
14171;SDS011;7165;52.388;4.928;2023-11-21T13:25:15;15.48;;;13.85;;
14171;SDS011;7165;52.388;4.928;2023-11-21T13:27:44;16.05;;;13.93;;
14171;SDS011;7165;52.388;4.928;2023-11-21T13:30:12;14.75;;;12.95;;
14171;SDS011;7165;52.388;4.928;2023-11-21T13:32:41;13.25;;;12.05;;
14171;SDS011;7165;52.388;4.928;2023-11-21T13:35:08;14.00;;;12.65;;
14171;SDS011;7165;52.388;4.928;2023-11-21T13:37:45;13.20;;;11.77;;
14171;SDS011;7165;52.388;4.928;2023-11-21T13:40:16;15.82;;;12.82;;
14171;SDS011;7165;52.388;4.928;2023-11-21T13:42:47;11.93;;;10.85;;
14171;SDS011;7165;52.388;4.928;2023-11-21T13:45:15;11.30;;;10.25;;
14171;SDS011;7165;52.388;4.928;2023-11-21T13:47:43;10.43;;;9.52;;
14171;SDS011;7165;52.388;4.928;2023-11-21T13:50:10;10.20;;;9.20;;
14171;SDS011;7165;52.388;4.928;2023-11-21T13:52:42;10.45;;;9.50;;
14171;SDS011;7165;52.388;4.928;2023-11-21T13:55:09;9.68;;;8.85;;
14171;SDS011;7165;52.388;4.928;2023-11-21T13:57:41;10.38;;;9.38;;
14171;SDS011;7165;52.388;4.928;2023-11-21T14:00:12;10.25;;;9.45;;
14171;SDS011;7165;52.388;4.928;2023-11-21T14:03:00;11.45;;;10.35;;
14171;SDS011;7165;52.388;4.928;2023-11-21T14:05:29;10.55;;;9.55;;
14171;SDS011;7165;52.388;4.928;2023-11-21T14:07:58;11.95;;;10.95;;
14171;SDS011;7165;52.388;4.928;2023-11-21T14:10:29;11.52;;;10.48;;
14171;SDS011;7165;52.388;4.928;2023-11-21T14:13:06;11.30;;;10.30;;
14171;SDS011;7165;52.388;4.928;2023-11-21T14:15:32;12.07;;;10.98;;
14171;SDS011;7165;52.388;4.928;2023-11-21T14:18:03;10.90;;;10.00;;
14171;SDS011;7165;52.388;4.928;2023-11-21T14:20:32;12.10;;;11.00;;
14171;SDS011;7165;52.388;4.928;2023-11-21T14:23:01;11.68;;;10.68;;
14171;SDS011;7165;52.388;4.928;2023-11-21T14:25:27;12.38;;;11.13;;
14171;SDS011;7165;52.388;4.928;2023-11-21T14:27:54;12.10;;;11.10;;
14171;SDS011;7165;52.388;4.928;2023-11-21T14:30:22;12.00;;;11.00;;
14171;SDS011;7165;52.388;4.928;2023-11-21T14:32:49;13.85;;;12.55;;
14171;SDS011;7165;52.388;4.928;2023-11-21T14:35:16;14.27;;;12.98;;
14171;SDS011;7165;52.388;4.928;2023-11-21T14:37:43;16.73;;;15.13;;
14171;SDS011;7165;52.388;4.928;2023-11-21T14:40:11;14.05;;;12.75;;
14171;SDS011;7165;52.388;4.928;2023-11-21T14:42:40;15.20;;;12.93;;
14171;SDS011;7165;52.388;4.928;2023-11-21T14:45:08;15.20;;;13.70;;
14171;SDS011;7165;52.388;4.928;2023-11-21T14:47:38;15.13;;;13.55;;